Time,TemperatureF,DewpointF,PressureIn,WindDirection,WindDirectionDegrees,WindSpeedMPH,WindSpeedGustMPH,Humidity,HourlyPrecipIn,Conditions,Clouds,dailyrainin,SoftwareType,DateUTC
2013-11-12 00:23:00,31.0,29.0,-100.00,North,0,9.0,17.0,95,0.00,,,-99.99,,2013-11-12 05:23:00,
2013-11-12 00:53:00,30.0,29.0,-100.00,NNW,340,9.0,16.0,95,0.00,,,-99.99,,2013-11-12 05:53:00,
2013-11-12 01:22:00,29.0,28.0,-100.00,NW,325,12.0,17.0,95,0.55,,,-99.99,,2013-11-12 06:22:00,
2013-11-12 01:52:00,29.0,27.0,-100.00,NNW,335,13.0,19.0,93,0.55,,,-99.99,,2013-11-12 06:52:00,
2013-11-12 02:21:00,28.0,26.0,-100.00,NNW,340,12.0,19.0,92,0.00,,,-99.99,,2013-11-12 07:21:00,
2013-11-12 02:52:00,27.0,25.0,-100.00,NNW,345,16.0,22.0,89,0.00,,,-99.99,,2013-11-12 07:52:00,
2013-11-12 03:21:00,27.0,24.0,-100.00,NNW,335,10.0,17.0,89,0.00,,,-99.99,,2013-11-12 08:21:00,
2013-11-12 03:52:00,27.0,24.0,-100.00,NNW,340,10.0,16.0,88,0.00,,,-99.99,,2013-11-12 08:52:00,
2013-11-12 04:21:00,27.0,23.0,-100.00,NNW,335,9.0,14.0,86,0.00,,,-99.99,,2013-11-12 09:21:00,
2013-11-12 04:53:00,27.0,22.0,-100.00,NW,325,10.0,14.0,83,0.00,,,-99.99,,2013-11-12 09:53:00,
2013-11-12 05:23:00,26.0,22.0,-100.00,NW,320,11.0,17.0,83,0.00,,,-99.99,,2013-11-12 10:23:00,
2013-11-12 05:53:00,26.0,21.0,-100.00,NNW,330,10.0,16.0,81,0.00,,,-99.99,,2013-11-12 10:53:00,
2013-11-12 06:22:00,26.0,20.0,-100.00,NNW,335,10.0,16.0,80,0.00,,,-99.99,,2013-11-12 11:22:00,
2013-11-12 06:52:00,25.0,19.0,-100.00,NNW,330,11.0,16.0,78,0.00,,,-99.99,,2013-11-12 11:52:00,
2013-11-12 07:22:00,25.0,18.0,-100.00,NNW,345,11.0,17.0,76,0.00,,,-99.99,,2013-11-12 12:22:00,
2013-11-12 07:52:00,24.0,18.0,-100.00,NNW,330,9.0,12.0,77,0.00,,,-99.99,,2013-11-12 12:52:00,
2013-11-12 08:22:00,24.0,18.0,-100.00,NNW,335,7.0,14.0,76,0.00,,,-99.99,,2013-11-12 13:22:00,
2013-11-12 08:52:00,25.0,18.0,-100.00,NW,320,8.0,13.0,76,0.00,,,-99.99,,2013-11-12 13:52:00,
2013-11-12 09:22:00,26.0,19.0,-100.00,NW,310,9.0,13.0,75,0.00,,,-99.99,,2013-11-12 14:22:00,
2013-11-12 09:52:00,26.0,20.0,-100.00,NW,315,8.0,12.0,77,0.00,,,-99.99,,2013-11-12 14:52:00,
2013-11-12 10:22:00,27.0,21.0,-100.00,NNW,330,13.0,17.0,76,0.00,,,-99.99,,2013-11-12 15:22:00,
2013-11-12 10:53:00,28.0,22.0,-100.00,NNW,335,12.0,17.0,76,0.00,,,-99.99,,2013-11-12 15:53:00,
2013-11-12 11:23:00,28.0,22.0,-100.00,NW,320,12.0,17.0,76,0.00,,,-99.99,,2013-11-12 16:23:00,
2013-11-12 11:52:00,28.0,22.0,-100.00,NW,310,10.0,15.0,76,0.00,,,-99.99,,2013-11-12 16:52:00,
2013-11-12 12:23:00,29.0,22.0,-100.00,NW,320,9.0,14.0,77,0.00,,,-99.99,,2013-11-12 17:23:00,
2013-11-12 12:52:00,29.0,23.0,-100.00,NNW,330,11.0,15.0,77,0.00,,,-99.99,,2013-11-12 17:52:00,
2013-11-12 13:23:00,29.0,23.0,-100.00,NW,325,9.0,16.0,79,0.00,,,-99.99,,2013-11-12 18:23:00,
2013-11-12 13:52:00,29.0,23.0,-100.00,NW,315,12.0,19.0,77,0.00,,,-99.99,,2013-11-12 18:52:00,
2013-11-12 14:22:00,30.0,23.0,-100.00,WNW,300,8.0,17.0,76,0.00,,,-99.99,,2013-11-12 19:22:00,
2013-11-12 14:52:00,30.0,23.0,-100.00,NW,320,13.0,17.0,74,0.00,,,-99.99,,2013-11-12 19:52:00,
2013-11-12 15:21:00,31.0,23.0,-100.00,NW,315,11.0,19.0,72,0.00,,,-99.99,,2013-11-12 20:21:00,
2013-11-12 15:52:00,30.0,22.0,-100.00,NW,325,17.0,23.0,71,0.00,,,-99.99,,2013-11-12 20:52:00,
2013-11-12 16:22:00,30.0,22.0,-100.00,NNW,330,8.0,18.0,71,0.00,,,-99.99,,2013-11-12 21:22:00,
2013-11-12 16:54:00,29.0,21.0,-100.00,NNW,330,9.0,16.0,71,0.00,,,-99.99,,2013-11-12 21:54:00,
2013-11-12 17:14:00,29.0,21.0,-100.00,NNW,330,8.0,14.0,72,0.00,,,-99.99,,2013-11-12 22:14:00,
2013-11-12 17:24:00,29.0,20.0,-100.00,NW,315,9.0,16.0,68,0.00,,,-99.99,,2013-11-12 22:24:00,
2013-11-12 17:54:00,29.0,18.0,-100.00,NW,320,13.0,17.0,65,0.00,,,-99.99,,2013-11-12 22:54:00,
2013-11-12 18:23:00,28.0,18.0,-100.00,WNW,285,6.0,9.0,68,0.00,,,-99.99,,2013-11-12 23:23:00,
2013-11-12 18:53:00,28.0,18.0,-100.00,WNW,300,6.0,9.0,67,0.00,,,-99.99,,2013-11-12 23:53:00,
2013-11-12 19:22:00,27.0,19.0,-100.00,West,275,4.0,7.0,69,0.00,,,-99.99,,2013-11-13 00:22:00,
2013-11-12 19:52:00,27.0,19.0,-100.00,WNW,290,5.0,7.0,71,0.00,,,-99.99,,2013-11-13 00:52:00,
2013-11-12 20:22:00,26.0,18.0,-100.00,WNW,300,6.0,11.0,71,0.00,,,-99.99,,2013-11-13 01:22:00,
2013-11-12 20:52:00,25.0,18.0,-100.00,WNW,300,4.0,6.0,74,0.00,,,-99.99,,2013-11-13 01:52:00,
2013-11-12 21:22:00,26.0,19.0,-100.00,WNW,295,4.0,7.0,73,0.00,,,-99.99,,2013-11-13 02:22:00,
2013-11-12 21:52:00,26.0,19.0,-100.00,WNW,300,6.0,9.0,75,0.00,,,-99.99,,2013-11-13 02:52:00,
2013-11-12 22:22:00,26.0,20.0,-100.00,WNW,295,5.0,7.0,75,0.00,,,-99.99,,2013-11-13 03:22:00,
2013-11-12 22:54:00,26.0,20.0,-100.00,West,280,6.0,11.0,77,0.00,,,-99.99,,2013-11-13 03:54:00,
2013-11-12 23:23:00,26.0,20.0,-100.00,West,275,4.0,8.0,78,0.00,,,-99.99,,2013-11-13 04:23:00,
2013-11-12 23:53:00,26.0,20.0,-100.00,WNW,290,6.0,9.0,79,0.00,,,-99.99,,2013-11-13 04:53:00,